sensor_id;sensor_type;location;lat;lon;timestamp;P1;durP1;ratioP1;P2;durP2;ratioP2
78453;SDS011;67750;55.832;49.124;2024-01-10T00:00:40;2.40;;;1.00;;
78453;SDS011;67750;55.832;49.124;2024-01-10T00:03:09;2.98;;;1.45;;
78453;SDS011;67750;55.832;49.124;2024-01-10T00:05:39;3.15;;;1.20;;
78453;SDS011;67750;55.832;49.124;2024-01-10T00:08:08;3.02;;;1.67;;
78453;SDS011;67750;55.832;49.124;2024-01-10T00:10:38;3.55;;;1.25;;
78453;SDS011;67750;55.832;49.124;2024-01-10T00:13:07;3.85;;;1.42;;
78453;SDS011;67750;55.832;49.124;2024-01-10T00:15:37;3.75;;;1.20;;
78453;SDS011;67750;55.832;49.124;2024-01-10T00:18:07;3.98;;;1.20;;
78453;SDS011;67750;55.832;49.124;2024-01-10T00:20:36;2.65;;;1.02;;
78453;SDS011;67750;55.832;49.124;2024-01-10T00:23:06;3.27;;;1.55;;
78453;SDS011;67750;55.832;49.124;2024-01-10T00:25:35;3.80;;;1.55;;
78453;SDS011;67750;55.832;49.124;2024-01-10T00:28:05;7.03;;;1.60;;
78453;SDS011;67750;55.832;49.124;2024-01-10T00:30:34;2.98;;;0.93;;
78453;SDS011;67750;55.832;49.124;2024-01-10T00:33:04;2.17;;;0.80;;
78453;SDS011;67750;55.832;49.124;2024-01-10T00:35:33;1.40;;;0.80;;
78453;SDS011;67750;55.832;49.124;2024-01-10T00:38:03;1.92;;;0.70;;
78453;SDS011;67750;55.832;49.124;2024-01-10T00:40:32;3.05;;;1.15;;
78453;SDS011;67750;55.832;49.124;2024-01-10T00:43:02;2.50;;;0.85;;
78453;SDS011;67750;55.832;49.124;2024-01-10T00:45:32;4.37;;;1.35;;
78453;SDS011;67750;55.832;49.124;2024-01-10T00:48:01;2.42;;;1.05;;
78453;SDS011;67750;55.832;49.124;2024-01-10T00:50:32;2.37;;;1.27;;
78453;SDS011;67750;55.832;49.124;2024-01-10T00:53:01;3.92;;;1.72;;
78453;SDS011;67750;55.832;49.124;2024-01-10T00:55:31;3.77;;;1.20;;
78453;SDS011;67750;55.832;49.124;2024-01-10T00:58:00;2.65;;;0.90;;
78453;SDS011;67750;55.832;49.124;2024-01-10T01:00:31;3.62;;;1.12;;
78453;SDS011;67750;55.832;49.124;2024-01-10T01:03:01;2.60;;;1.20;;
78453;SDS011;67750;55.832;49.124;2024-01-10T01:05:30;3.58;;;1.27;;
78453;SDS011;67750;55.832;49.124;2024-01-10T01:07:59;3.30;;;1.50;;
78453;SDS011;67750;55.832;49.124;2024-01-10T01:10:29;5.95;;;1.37;;
78453;SDS011;67750;55.832;49.124;2024-01-10T01:12:58;3.50;;;1.27;;
78453;SDS011;67750;55.832;49.124;2024-01-10T01:15:28;2.47;;;1.20;;
78453;SDS011;67750;55.832;49.124;2024-01-10T01:17:57;2.52;;;1.15;;
78453;SDS011;67750;55.832;49.124;2024-01-10T01:20:27;2.55;;;0.90;;
78453;SDS011;67750;55.832;49.124;2024-01-10T01:22:57;2.25;;;1.00;;
78453;SDS011;67750;55.832;49.124;2024-01-10T01:25:26;3.85;;;1.17;;
78453;SDS011;67750;55.832;49.124;2024-01-10T01:27:56;2.00;;;1.10;;
78453;SDS011;67750;55.832;49.124;2024-01-10T01:30:25;4.00;;;1.40;;
78453;SDS011;67750;55.832;49.124;2024-01-10T01:32:55;3.60;;;1.50;;
78453;SDS011;67750;55.832;49.124;2024-01-10T01:35:24;3.83;;;1.60;;
78453;SDS011;67750;55.832;49.124;2024-01-10T01:37:54;4.30;;;1.20;;
78453;SDS011;67750;55.832;49.124;2024-01-10T01:40:24;5.03;;;1.40;;
78453;SDS011;67750;55.832;49.124;2024-01-10T01:42:53;2.72;;;1.15;;
78453;SDS011;67750;55.832;49.124;2024-01-10T01:45:23;5.20;;;1.80;;
78453;SDS011;67750;55.832;49.124;2024-01-10T01:47:52;2.55;;;1.32;;
78453;SDS011;67750;55.832;49.124;2024-01-10T01:50:22;5.70;;;1.50;;
78453;SDS011;67750;55.832;49.124;2024-01-10T01:52:52;5.10;;;1.30;;
78453;SDS011;67750;55.832;49.124;2024-01-10T01:55:21;6.80;;;1.60;;
78453;SDS011;67750;55.832;49.124;2024-01-10T01:57:51;2.90;;;1.32;;
78453;SDS011;67750;55.832;49.124;2024-01-10T02:00:21;4.12;;;1.70;;
78453;SDS011;67750;55.832;49.124;2024-01-10T02:02:51;4.40;;;2.00;;
78453;SDS011;67750;55.832;49.124;2024-01-10T02:05:21;4.28;;;1.60;;
78453;SDS011;67750;55.832;49.124;2024-01-10T02:07:50;5.08;;;1.82;;
78453;SDS011;67750;55.832;49.124;2024-01-10T02:10:21;7.28;;;2.22;;
78453;SDS011;67750;55.832;49.124;2024-01-10T02:12:51;5.12;;;2.05;;
78453;SDS011;67750;55.832;49.124;2024-01-10T02:15:23;2.65;;;1.17;;
78453;SDS011;67750;55.832;49.124;2024-01-10T02:17:54;2.17;;;1.30;;
78453;SDS011;67750;55.832;49.124;2024-01-10T02:20:24;2.35;;;1.10;;
78453;SDS011;67750;55.832;49.124;2024-01-10T02:22:53;4.12;;;1.85;;
78453;SDS011;67750;55.832;49.124;2024-01-10T02:25:23;4.28;;;1.82;;
78453;SDS011;67750;55.832;49.124;2024-01-10T02:27:52;3.90;;;1.40;;
78453;SDS011;67750;55.832;49.124;2024-01-10T02:30:21;4.65;;;1.40;;
78453;SDS011;67750;55.832;49.124;2024-01-10T02:32:51;2.83;;;1.02;;
78453;SDS011;67750;55.832;49.124;2024-01-10T02:35:20;3.70;;;1.15;;
78453;SDS011;67750;55.832;49.124;2024-01-10T02:37:50;3.33;;;1.37;;
78453;SDS011;67750;55.832;49.124;2024-01-10T02:40:21;5.22;;;1.50;;
78453;SDS011;67750;55.832;49.124;2024-01-10T02:42:50;2.87;;;1.27;;
78453;SDS011;67750;55.832;49.124;2024-01-10T02:45:20;4.40;;;1.20;;
78453;SDS011;67750;55.832;49.124;2024-01-10T02:47:50;3.87;;;1.47;;
78453;SDS011;67750;55.832;49.124;2024-01-10T02:50:19;3.58;;;1.30;;
78453;SDS011;67750;55.832;49.124;2024-01-10T02:52:49;2.60;;;0.88;;
78453;SDS011;67750;55.832;49.124;2024-01-10T02:55:18;2.55;;;1.17;;
78453;SDS011;67750;55.832;49.124;2024-01-10T02:57:48;5.37;;;1.27;;
78453;SDS011;67750;55.832;49.124;2024-01-10T03:00:17;3.83;;;0.95;;
78453;SDS011;67750;55.832;49.124;2024-01-10T03:02:47;3.90;;;1.30;;
78453;SDS011;67750;55.832;49.124;2024-01-10T03:05:17;4.50;;;1.20;;
78453;SDS011;67750;55.832;49.124;2024-01-10T03:07:46;3.67;;;1.47;;
78453;SDS011;67750;55.832;49.124;2024-01-10T03:10:16;2.35;;;1.35;;
78453;SDS011;67750;55.832;49.124;2024-01-10T03:12:46;3.75;;;1.30;;
78453;SDS011;67750;55.832;49.124;2024-01-10T03:15:15;4.75;;;1.60;;
78453;SDS011;67750;55.832;49.124;2024-01-10T03:17:45;5.78;;;2.00;;
78453;SDS011;67750;55.832;49.124;2024-01-10T03:20:14;4.55;;;1.65;;
78453;SDS011;67750;55.832;49.124;2024-01-10T03:22:44;3.27;;;1.27;;
78453;SDS011;67750;55.832;49.124;2024-01-10T03:25:14;4.05;;;1.82;;
78453;SDS011;67750;55.832;49.124;2024-01-10T03:27:44;3.92;;;2.17;;
78453;SDS011;67750;55.832;49.124;2024-01-10T03:30:13;6.00;;;1.60;;
78453;SDS011;67750;55.832;49.124;2024-01-10T03:32:44;7.42;;;2.37;;
78453;SDS011;67750;55.832;49.124;2024-01-10T03:35:14;3.87;;;1.57;;
78453;SDS011;67750;55.832;49.124;2024-01-10T03:37:44;4.87;;;1.60;;
78453;SDS011;67750;55.832;49.124;2024-01-10T03:40:14;4.95;;;1.80;;
78453;SDS011;67750;55.832;49.124;2024-01-10T03:42:44;3.58;;;1.57;;
78453;SDS011;67750;55.832;49.124;2024-01-10T03:45:13;6.55;;;1.25;;
78453;SDS011;67750;55.832;49.124;2024-01-10T03:47:45;4.35;;;1.70;;
78453;SDS011;67750;55.832;49.124;2024-01-10T03:53:06;3.77;;;1.65;;
78453;SDS011;67750;55.832;49.124;2024-01-10T03:55:36;4.35;;;1.52;;
78453;SDS011;67750;55.832;49.124;2024-01-10T03:58:06;5.00;;;1.92;;
78453;SDS011;67750;55.832;49.124;2024-01-10T04:00:35;4.10;;;1.50;;
78453;SDS011;67750;55.832;49.124;2024-01-10T04:03:05;3.80;;;1.62;;
78453;SDS011;67750;55.832;49.124;2024-01-10T04:05:35;2.83;;;1.47;;
78453;SDS011;67750;55.832;49.124;2024-01-10T04:08:04;4.67;;;1.57;;
78453;SDS011;67750;55.832;49.124;2024-01-10T04:10:34;4.33;;;1.70;;
78453;SDS011;67750;55.832;49.124;2024-01-10T04:13:04;3.90;;;1.40;;
78453;SDS011;67750;55.832;49.124;2024-01-10T04:15:33;2.12;;;0.82;;
78453;SDS011;67750;55.832;49.124;2024-01-10T04:18:03;4.97;;;1.60;;
78453;SDS011;67750;55.832;49.124;2024-01-10T04:20:32;3.87;;;1.57;;
78453;SDS011;67750;55.832;49.124;2024-01-10T04:23:02;3.65;;;1.72;;
78453;SDS011;67750;55.832;49.124;2024-01-10T04:25:32;4.83;;;1.55;;
78453;SDS011;67750;55.832;49.124;2024-01-10T04:28:01;4.30;;;1.80;;
78453;SDS011;67750;55.832;49.124;2024-01-10T04:30:31;3.50;;;1.62;;
78453;SDS011;67750;55.832;49.124;2024-01-10T04:33:00;5.05;;;1.75;;
78453;SDS011;67750;55.832;49.124;2024-01-10T04:35:31;3.65;;;1.75;;
78453;SDS011;67750;55.832;49.124;2024-01-10T04:38:00;6.47;;;1.80;;
78453;SDS011;67750;55.832;49.124;2024-01-10T04:40:29;3.85;;;1.80;;
78453;SDS011;67750;55.832;49.124;2024-01-10T04:42:59;6.00;;;1.67;;
78453;SDS011;67750;55.832;49.124;2024-01-10T04:45:29;3.65;;;1.52;;
78453;SDS011;67750;55.832;49.124;2024-01-10T04:47:58;4.28;;;1.52;;
78453;SDS011;67750;55.832;49.124;2024-01-10T04:50:27;2.67;;;1.60;;
78453;SDS011;67750;55.832;49.124;2024-01-10T04:52:57;5.67;;;1.70;;
78453;SDS011;67750;55.832;49.124;2024-01-10T04:55:26;5.33;;;1.65;;
78453;SDS011;67750;55.832;49.124;2024-01-10T04:57:56;5.12;;;1.67;;
78453;SDS011;67750;55.832;49.124;2024-01-10T05:00:27;4.20;;;1.15;;
78453;SDS011;67750;55.832;49.124;2024-01-10T05:02:57;2.92;;;1.20;;
78453;SDS011;67750;55.832;49.124;2024-01-10T05:05:26;3.65;;;1.25;;
78453;SDS011;67750;55.832;49.124;2024-01-10T05:07:56;4.00;;;1.37;;
78453;SDS011;67750;55.832;49.124;2024-01-10T05:10:25;5.20;;;1.82;;
78453;SDS011;67750;55.832;49.124;2024-01-10T05:12:55;3.58;;;1.57;;
78453;SDS011;67750;55.832;49.124;2024-01-10T05:15:25;3.05;;;1.30;;
78453;SDS011;67750;55.832;49.124;2024-01-10T05:17:54;3.15;;;1.22;;
78453;SDS011;67750;55.832;49.124;2024-01-10T05:20:24;4.92;;;1.40;;
78453;SDS011;67750;55.832;49.124;2024-01-10T05:22:53;3.02;;;1.27;;
78453;SDS011;67750;55.832;49.124;2024-01-10T05:25:24;3.95;;;1.60;;
78453;SDS011;67750;55.832;49.124;2024-01-10T05:27:54;3.20;;;1.45;;
78453;SDS011;67750;55.832;49.124;2024-01-10T05:30:23;4.25;;;1.45;;
78453;SDS011;67750;55.832;49.124;2024-01-10T05:32:53;4.37;;;1.30;;
78453;SDS011;67750;55.832;49.124;2024-01-10T05:35:24;5.97;;;1.62;;
78453;SDS011;67750;55.832;49.124;2024-01-10T05:37:53;3.08;;;1.30;;
78453;SDS011;67750;55.832;49.124;2024-01-10T05:40:23;3.08;;;1.60;;
78453;SDS011;67750;55.832;49.124;2024-01-10T05:42:53;3.92;;;1.40;;
78453;SDS011;67750;55.832;49.124;2024-01-10T05:45:22;3.85;;;1.70;;
78453;SDS011;67750;55.832;49.124;2024-01-10T05:47:52;4.47;;;1.67;;
78453;SDS011;67750;55.832;49.124;2024-01-10T05:50:21;3.65;;;1.57;;
78453;SDS011;67750;55.832;49.124;2024-01-10T05:52:51;5.55;;;2.08;;
78453;SDS011;67750;55.832;49.124;2024-01-10T05:55:20;3.87;;;2.02;;
78453;SDS011;67750;55.832;49.124;2024-01-10T05:57:50;4.00;;;1.57;;
78453;SDS011;67750;55.832;49.124;2024-01-10T06:00:20;5.00;;;1.65;;
78453;SDS011;67750;55.832;49.124;2024-01-10T06:02:49;4.45;;;1.65;;
78453;SDS011;67750;55.832;49.124;2024-01-10T06:05:18;4.75;;;1.77;;
78453;SDS011;67750;55.832;49.124;2024-01-10T06:07:50;5.92;;;1.90;;
78453;SDS011;67750;55.832;49.124;2024-01-10T06:10:19;3.95;;;1.47;;
78453;SDS011;67750;55.832;49.124;2024-01-10T06:12:49;2.02;;;1.20;;
78453;SDS011;67750;55.832;49.124;2024-01-10T06:15:18;4.05;;;2.17;;
78453;SDS011;67750;55.832;49.124;2024-01-10T06:17:48;4.95;;;1.72;;
78453;SDS011;67750;55.832;49.124;2024-01-10T06:20:17;3.27;;;1.47;;
78453;SDS011;67750;55.832;49.124;2024-01-10T06:22:47;3.98;;;1.47;;
78453;SDS011;67750;55.832;49.124;2024-01-10T06:25:16;4.40;;;1.80;;
78453;SDS011;67750;55.832;49.124;2024-01-10T06:27:46;3.40;;;2.08;;
78453;SDS011;67750;55.832;49.124;2024-01-10T06:30:16;4.42;;;1.90;;
78453;SDS011;67750;55.832;49.124;2024-01-10T06:32:45;4.00;;;1.57;;
78453;SDS011;67750;55.832;49.124;2024-01-10T06:35:15;5.70;;;2.00;;
78453;SDS011;67750;55.832;49.124;2024-01-10T06:37:44;4.28;;;1.30;;
78453;SDS011;67750;55.832;49.124;2024-01-10T06:40:14;5.78;;;1.77;;
78453;SDS011;67750;55.832;49.124;2024-01-10T06:42:44;4.30;;;1.65;;
78453;SDS011;67750;55.832;49.124;2024-01-10T06:45:14;7.95;;;1.92;;
78453;SDS011;67750;55.832;49.124;2024-01-10T06:47:44;4.72;;;1.60;;
78453;SDS011;67750;55.832;49.124;2024-01-10T06:50:13;5.97;;;2.00;;
78453;SDS011;67750;55.832;49.124;2024-01-10T06:52:43;4.30;;;2.10;;
78453;SDS011;67750;55.832;49.124;2024-01-10T06:55:13;2.65;;;1.50;;
78453;SDS011;67750;55.832;49.124;2024-01-10T06:57:43;4.17;;;2.15;;
78453;SDS011;67750;55.832;49.124;2024-01-10T07:00:13;6.92;;;1.77;;
78453;SDS011;67750;55.832;49.124;2024-01-10T07:02:45;4.47;;;2.00;;
78453;SDS011;67750;55.832;49.124;2024-01-10T07:05:15;3.62;;;1.52;;
78453;SDS011;67750;55.832;49.124;2024-01-10T07:07:46;4.35;;;2.02;;
78453;SDS011;67750;55.832;49.124;2024-01-10T07:10:16;2.95;;;1.50;;
78453;SDS011;67750;55.832;49.124;2024-01-10T07:12:46;3.92;;;1.70;;
78453;SDS011;67750;55.832;49.124;2024-01-10T07:15:16;5.47;;;1.90;;
78453;SDS011;67750;55.832;49.124;2024-01-10T07:17:45;4.85;;;1.65;;
78453;SDS011;67750;55.832;49.124;2024-01-10T07:20:15;3.55;;;1.52;;
78453;SDS011;67750;55.832;49.124;2024-01-10T07:22:44;2.47;;;0.85;;
78453;SDS011;67750;55.832;49.124;2024-01-10T07:25:15;4.08;;;1.70;;
78453;SDS011;67750;55.832;49.124;2024-01-10T07:27:49;5.33;;;1.77;;
78453;SDS011;67750;55.832;49.124;2024-01-10T07:30:19;3.58;;;1.85;;
78453;SDS011;67750;55.832;49.124;2024-01-10T07:32:48;4.17;;;1.72;;
78453;SDS011;67750;55.832;49.124;2024-01-10T07:35:18;6.97;;;2.00;;
78453;SDS011;67750;55.832;49.124;2024-01-10T07:37:47;6.30;;;2.05;;
78453;SDS011;67750;55.832;49.124;2024-01-10T07:40:17;4.87;;;2.58;;
78453;SDS011;67750;55.832;49.124;2024-01-10T07:42:46;6.97;;;2.50;;
78453;SDS011;67750;55.832;49.124;2024-01-10T07:45:16;3.83;;;1.52;;
78453;SDS011;67750;55.832;49.124;2024-01-10T07:47:46;4.17;;;1.50;;
78453;SDS011;67750;55.832;49.124;2024-01-10T07:50:15;4.53;;;2.30;;
78453;SDS011;67750;55.832;49.124;2024-01-10T07:52:46;5.53;;;2.00;;
78453;SDS011;67750;55.832;49.124;2024-01-10T07:55:16;8.00;;;3.15;;
78453;SDS011;67750;55.832;49.124;2024-01-10T07:57:47;4.90;;;2.05;;
78453;SDS011;67750;55.832;49.124;2024-01-10T08:00:17;6.30;;;2.42;;
78453;SDS011;67750;55.832;49.124;2024-01-10T08:02:47;4.95;;;2.75;;
78453;SDS011;67750;55.832;49.124;2024-01-10T08:05:17;6.72;;;2.37;;
78453;SDS011;67750;55.832;49.124;2024-01-10T08:07:48;3.58;;;1.20;;
78453;SDS011;67750;55.832;49.124;2024-01-10T08:10:18;6.10;;;2.08;;
78453;SDS011;67750;55.832;49.124;2024-01-10T08:12:48;5.00;;;2.55;;
78453;SDS011;67750;55.832;49.124;2024-01-10T08:15:19;6.08;;;2.45;;
78453;SDS011;67750;55.832;49.124;2024-01-10T08:17:48;5.05;;;2.20;;
78453;SDS011;67750;55.832;49.124;2024-01-10T08:20:18;4.47;;;1.92;;
78453;SDS011;67750;55.832;49.124;2024-01-10T08:22:48;4.17;;;2.15;;
78453;SDS011;67750;55.832;49.124;2024-01-10T08:25:18;8.30;;;2.35;;
78453;SDS011;67750;55.832;49.124;2024-01-10T08:27:47;4.80;;;1.95;;
78453;SDS011;67750;55.832;49.124;2024-01-10T08:30:19;5.55;;;2.47;;
78453;SDS011;67750;55.832;49.124;2024-01-10T08:32:48;6.60;;;2.45;;
78453;SDS011;67750;55.832;49.124;2024-01-10T08:35:18;1.90;;;0.98;;
78453;SDS011;67750;55.832;49.124;2024-01-10T08:37:48;5.75;;;2.20;;
78453;SDS011;67750;55.832;49.124;2024-01-10T08:40:17;7.83;;;2.42;;
78453;SDS011;67750;55.832;49.124;2024-01-10T08:42:48;3.47;;;1.52;;
78453;SDS011;67750;55.832;49.124;2024-01-10T08:45:18;6.17;;;2.60;;
78453;SDS011;67750;55.832;49.124;2024-01-10T08:47:48;5.83;;;2.55;;
78453;SDS011;67750;55.832;49.124;2024-01-10T08:50:17;5.67;;;2.47;;
78453;SDS011;67750;55.832;49.124;2024-01-10T08:52:47;6.87;;;2.20;;
78453;SDS011;67750;55.832;49.124;2024-01-10T08:55:17;5.78;;;2.67;;
78453;SDS011;67750;55.832;49.124;2024-01-10T08:57:46;2.75;;;1.37;;
78453;SDS011;67750;55.832;49.124;2024-01-10T09:00:16;6.00;;;2.30;;
78453;SDS011;67750;55.832;49.124;2024-01-10T09:02:46;6.50;;;2.58;;
78453;SDS011;67750;55.832;49.124;2024-01-10T09:05:15;6.40;;;2.75;;
78453;SDS011;67750;55.832;49.124;2024-01-10T09:07:45;6.53;;;3.10;;
78453;SDS011;67750;55.832;49.124;2024-01-10T09:10:15;6.17;;;2.60;;
78453;SDS011;67750;55.832;49.124;2024-01-10T09:12:44;9.53;;;2.87;;
78453;SDS011;67750;55.832;49.124;2024-01-10T09:15:14;9.75;;;3.08;;
78453;SDS011;67750;55.832;49.124;2024-01-10T09:17:45;9.60;;;3.45;;
78453;SDS011;67750;55.832;49.124;2024-01-10T09:20:15;8.98;;;3.15;;
78453;SDS011;67750;55.832;49.124;2024-01-10T09:22:45;6.22;;;2.80;;
78453;SDS011;67750;55.832;49.124;2024-01-10T09:25:16;7.03;;;2.95;;
78453;SDS011;67750;55.832;49.124;2024-01-10T09:27:47;9.05;;;2.92;;
78453;SDS011;67750;55.832;49.124;2024-01-10T09:30:16;5.90;;;2.22;;
78453;SDS011;67750;55.832;49.124;2024-01-10T09:32:47;8.43;;;2.90;;
78453;SDS011;67750;55.832;49.124;2024-01-10T09:35:16;8.03;;;2.67;;
78453;SDS011;67750;55.832;49.124;2024-01-10T09:37:46;8.68;;;3.25;;
78453;SDS011;67750;55.832;49.124;2024-01-10T09:40:16;5.65;;;1.62;;
78453;SDS011;67750;55.832;49.124;2024-01-10T09:42:48;6.03;;;2.50;;
78453;SDS011;67750;55.832;49.124;2024-01-10T09:45:18;8.35;;;3.45;;
78453;SDS011;67750;55.832;49.124;2024-01-10T09:47:51;6.53;;;2.75;;
78453;SDS011;67750;55.832;49.124;2024-01-10T09:50:20;8.78;;;3.45;;
78453;SDS011;67750;55.832;49.124;2024-01-10T09:55:40;4.67;;;1.98;;
78453;SDS011;67750;55.832;49.124;2024-01-10T09:58:09;7.30;;;3.58;;
78453;SDS011;67750;55.832;49.124;2024-01-10T10:00:39;7.85;;;3.52;;
78453;SDS011;67750;55.832;49.124;2024-01-10T10:03:09;7.50;;;3.35;;
78453;SDS011;67750;55.832;49.124;2024-01-10T10:05:39;6.83;;;2.87;;
78453;SDS011;67750;55.832;49.124;2024-01-10T10:08:10;7.97;;;3.05;;
78453;SDS011;67750;55.832;49.124;2024-01-10T10:10:42;5.80;;;3.17;;
78453;SDS011;67750;55.832;49.124;2024-01-10T10:13:23;4.85;;;2.30;;
78453;SDS011;67750;55.832;49.124;2024-01-10T10:15:44;6.92;;;3.08;;
78453;SDS011;67750;55.832;49.124;2024-01-10T10:18:16;5.65;;;2.42;;
78453;SDS011;67750;55.832;49.124;2024-01-10T10:20:46;5.75;;;2.40;;
78453;SDS011;67750;55.832;49.124;2024-01-10T10:23:16;3.95;;;1.82;;
78453;SDS011;67750;55.832;49.124;2024-01-10T10:25:47;6.40;;;1.25;;
78453;SDS011;67750;55.832;49.124;2024-01-10T10:28:17;5.10;;;2.00;;
78453;SDS011;67750;55.832;49.124;2024-01-10T10:30:46;5.72;;;2.42;;
78453;SDS011;67750;55.832;49.124;2024-01-10T10:33:16;8.23;;;2.92;;
78453;SDS011;67750;55.832;49.124;2024-01-10T10:35:46;5.90;;;2.80;;
78453;SDS011;67750;55.832;49.124;2024-01-10T10:38:16;7.50;;;2.75;;
78453;SDS011;67750;55.832;49.124;2024-01-10T10:40:45;5.40;;;2.22;;
78453;SDS011;67750;55.832;49.124;2024-01-10T10:43:15;6.47;;;2.30;;
78453;SDS011;67750;55.832;49.124;2024-01-10T10:45:48;5.08;;;2.55;;
78453;SDS011;67750;55.832;49.124;2024-01-10T10:48:19;7.60;;;3.27;;
78453;SDS011;67750;55.832;49.124;2024-01-10T10:53:39;8.68;;;3.58;;
78453;SDS011;67750;55.832;49.124;2024-01-10T10:56:08;10.90;;;3.67;;
78453;SDS011;67750;55.832;49.124;2024-01-10T10:58:39;9.25;;;3.47;;
78453;SDS011;67750;55.832;49.124;2024-01-10T11:01:10;8.15;;;3.50;;
78453;SDS011;67750;55.832;49.124;2024-01-10T11:03:41;7.12;;;3.67;;
78453;SDS011;67750;55.832;49.124;2024-01-10T11:06:11;6.67;;;3.05;;
78453;SDS011;67750;55.832;49.124;2024-01-10T11:25:21;7.25;;;2.70;;
78453;SDS011;67750;55.832;49.124;2024-01-10T11:27:52;4.65;;;1.77;;
78453;SDS011;67750;55.832;49.124;2024-01-10T11:39:10;6.45;;;3.00;;
78453;SDS011;67750;55.832;49.124;2024-01-10T11:41:42;8.38;;;2.98;;
78453;SDS011;67750;55.832;49.124;2024-01-10T11:47:04;11.30;;;3.98;;
78453;SDS011;67750;55.832;49.124;2024-01-10T11:49:33;7.87;;;3.75;;
78453;SDS011;67750;55.832;49.124;2024-01-10T11:52:03;7.42;;;2.80;;
78453;SDS011;67750;55.832;49.124;2024-01-10T11:57:23;8.95;;;3.25;;
78453;SDS011;67750;55.832;49.124;2024-01-10T11:59:54;8.30;;;3.25;;
78453;SDS011;67750;55.832;49.124;2024-01-10T12:04:54;10.25;;;2.60;;
78453;SDS011;67750;55.832;49.124;2024-01-10T12:07:24;6.53;;;2.75;;
78453;SDS011;67750;55.832;49.124;2024-01-10T12:09:54;9.78;;;4.08;;
78453;SDS011;67750;55.832;49.124;2024-01-10T12:12:24;15.40;;;4.10;;
78453;SDS011;67750;55.832;49.124;2024-01-10T12:14:54;10.45;;;3.05;;
78453;SDS011;67750;55.832;49.124;2024-01-10T12:17:26;10.23;;;4.15;;
78453;SDS011;67750;55.832;49.124;2024-01-10T12:19:56;7.83;;;3.70;;
78453;SDS011;67750;55.832;49.124;2024-01-10T12:22:25;9.55;;;3.52;;
78453;SDS011;67750;55.832;49.124;2024-01-10T12:24:55;6.53;;;3.17;;
78453;SDS011;67750;55.832;49.124;2024-01-10T12:27:25;5.00;;;2.40;;
78453;SDS011;67750;55.832;49.124;2024-01-10T12:29:54;7.95;;;2.98;;
78453;SDS011;67750;55.832;49.124;2024-01-10T12:32:25;6.35;;;2.58;;
78453;SDS011;67750;55.832;49.124;2024-01-10T12:40:36;4.90;;;2.27;;
78453;SDS011;67750;55.832;49.124;2024-01-10T12:43:06;7.55;;;2.95;;
78453;SDS011;67750;55.832;49.124;2024-01-10T12:45:37;9.00;;;4.05;;
78453;SDS011;67750;55.832;49.124;2024-01-10T12:48:07;9.28;;;3.50;;
78453;SDS011;67750;55.832;49.124;2024-01-10T12:50:38;6.97;;;3.08;;
78453;SDS011;67750;55.832;49.124;2024-01-10T12:53:09;8.45;;;3.47;;
78453;SDS011;67750;55.832;49.124;2024-01-10T12:55:38;7.33;;;2.70;;
78453;SDS011;67750;55.832;49.124;2024-01-10T12:58:08;6.58;;;2.92;;
78453;SDS011;67750;55.832;49.124;2024-01-10T13:00:38;9.03;;;3.85;;
78453;SDS011;67750;55.832;49.124;2024-01-10T13:03:08;5.85;;;2.72;;
78453;SDS011;67750;55.832;49.124;2024-01-10T13:05:37;5.53;;;2.85;;
78453;SDS011;67750;55.832;49.124;2024-01-10T13:08:07;7.92;;;3.08;;
78453;SDS011;67750;55.832;49.124;2024-01-10T13:10:38;7.30;;;3.00;;
78453;SDS011;67750;55.832;49.124;2024-01-10T13:13:08;6.80;;;3.15;;
78453;SDS011;67750;55.832;49.124;2024-01-10T13:15:38;4.47;;;1.98;;
78453;SDS011;67750;55.832;49.124;2024-01-10T13:18:08;8.35;;;3.35;;
78453;SDS011;67750;55.832;49.124;2024-01-10T13:20:38;9.95;;;3.55;;
78453;SDS011;67750;55.832;49.124;2024-01-10T13:23:07;8.08;;;3.45;;
78453;SDS011;67750;55.832;49.124;2024-01-10T13:25:37;9.78;;;3.60;;
78453;SDS011;67750;55.832;49.124;2024-01-10T13:28:08;10.53;;;4.10;;
78453;SDS011;67750;55.832;49.124;2024-01-10T13:30:39;6.60;;;2.83;;
78453;SDS011;67750;55.832;49.124;2024-01-10T13:33:10;9.18;;;3.90;;
78453;SDS011;67750;55.832;49.124;2024-01-10T13:35:40;9.80;;;4.12;;
78453;SDS011;67750;55.832;49.124;2024-01-10T13:38:10;8.33;;;2.95;;
78453;SDS011;67750;55.832;49.124;2024-01-10T13:40:40;8.10;;;3.30;;
78453;SDS011;67750;55.832;49.124;2024-01-10T13:43:10;7.28;;;3.22;;
78453;SDS011;67750;55.832;49.124;2024-01-10T13:45:40;8.93;;;3.37;;
78453;SDS011;67750;55.832;49.124;2024-01-10T13:48:09;9.03;;;3.83;;
78453;SDS011;67750;55.832;49.124;2024-01-10T13:50:39;8.05;;;3.17;;
78453;SDS011;67750;55.832;49.124;2024-01-10T13:53:09;6.22;;;2.72;;
78453;SDS011;67750;55.832;49.124;2024-01-10T13:55:38;6.92;;;3.05;;
78453;SDS011;67750;55.832;49.124;2024-01-10T13:58:08;10.05;;;2.92;;
78453;SDS011;67750;55.832;49.124;2024-01-10T14:00:37;9.55;;;3.37;;
78453;SDS011;67750;55.832;49.124;2024-01-10T14:03:07;7.28;;;3.08;;
78453;SDS011;67750;55.832;49.124;2024-01-10T14:05:36;7.40;;;3.30;;
78453;SDS011;67750;55.832;49.124;2024-01-10T14:08:06;10.90;;;3.22;;
78453;SDS011;67750;55.832;49.124;2024-01-10T14:10:36;9.90;;;3.50;;
78453;SDS011;67750;55.832;49.124;2024-01-10T14:13:09;9.60;;;3.33;;
78453;SDS011;67750;55.832;49.124;2024-01-10T14:15:38;8.45;;;3.52;;
78453;SDS011;67750;55.832;49.124;2024-01-10T14:18:09;7.33;;;3.00;;
78453;SDS011;67750;55.832;49.124;2024-01-10T14:20:40;7.10;;;2.98;;
78453;SDS011;67750;55.832;49.124;2024-01-10T14:23:10;8.05;;;2.42;;
78453;SDS011;67750;55.832;49.124;2024-01-10T14:25:39;6.85;;;3.20;;
78453;SDS011;67750;55.832;49.124;2024-01-10T14:28:09;5.05;;;1.80;;
78453;SDS011;67750;55.832;49.124;2024-01-10T14:30:39;6.42;;;2.67;;
78453;SDS011;67750;55.832;49.124;2024-01-10T14:33:10;3.58;;;1.70;;
78453;SDS011;67750;55.832;49.124;2024-01-10T14:35:40;3.58;;;1.95;;
78453;SDS011;67750;55.832;49.124;2024-01-10T14:38:11;7.10;;;3.42;;
78453;SDS011;67750;55.832;49.124;2024-01-10T14:40:41;7.75;;;3.80;;
78453;SDS011;67750;55.832;49.124;2024-01-10T14:43:11;10.63;;;2.77;;
78453;SDS011;67750;55.832;49.124;2024-01-10T14:45:40;10.23;;;3.30;;
78453;SDS011;67750;55.832;49.124;2024-01-10T14:48:10;8.13;;;3.40;;
78453;SDS011;67750;55.832;49.124;2024-01-10T14:50:40;10.90;;;3.75;;
78453;SDS011;67750;55.832;49.124;2024-01-10T14:53:10;9.75;;;3.30;;
78453;SDS011;67750;55.832;49.124;2024-01-10T14:55:39;9.05;;;4.03;;
78453;SDS011;67750;55.832;49.124;2024-01-10T14:58:09;7.40;;;3.55;;
78453;SDS011;67750;55.832;49.124;2024-01-10T15:00:39;8.48;;;3.08;;
78453;SDS011;67750;55.832;49.124;2024-01-10T15:03:11;7.72;;;3.12;;
78453;SDS011;67750;55.832;49.124;2024-01-10T15:05:41;10.40;;;4.00;;
78453;SDS011;67750;55.832;49.124;2024-01-10T15:08:10;10.70;;;3.70;;
78453;SDS011;67750;55.832;49.124;2024-01-10T15:10:40;8.85;;;3.20;;
78453;SDS011;67750;55.832;49.124;2024-01-10T15:13:10;9.20;;;3.83;;
78453;SDS011;67750;55.832;49.124;2024-01-10T15:15:39;10.95;;;3.52;;
78453;SDS011;67750;55.832;49.124;2024-01-10T15:18:09;8.25;;;2.77;;
78453;SDS011;67750;55.832;49.124;2024-01-10T15:20:39;8.20;;;3.65;;
78453;SDS011;67750;55.832;49.124;2024-01-10T15:23:09;12.82;;;4.28;;
78453;SDS011;67750;55.832;49.124;2024-01-10T15:25:39;11.53;;;3.65;;
78453;SDS011;67750;55.832;49.124;2024-01-10T15:30:59;8.50;;;3.65;;
78453;SDS011;67750;55.832;49.124;2024-01-10T15:33:29;11.57;;;4.30;;
78453;SDS011;67750;55.832;49.124;2024-01-10T15:35:58;3.65;;;1.80;;
78453;SDS011;67750;55.832;49.124;2024-01-10T15:38:29;11.28;;;4.45;;